sensor_id;sensor_type;location;lat;lon;timestamp;P1;durP1;ratioP1;P2;durP2;ratioP2
65871;SDS011;52653;50.080;21.992;2022-12-29T00:02:20;14.50;;;8.90;;
65871;SDS011;52653;50.080;21.992;2022-12-29T00:04:53;14.20;;;8.50;;
65871;SDS011;52653;50.080;21.992;2022-12-29T00:07:26;12.80;;;8.20;;
65871;SDS011;52653;50.080;21.992;2022-12-29T00:10:00;13.20;;;8.20;;
65871;SDS011;52653;50.080;21.992;2022-12-29T00:12:33;10.60;;;7.20;;
65871;SDS011;52653;50.080;21.992;2022-12-29T00:15:23;10.90;;;7.30;;
65871;SDS011;52653;50.080;21.992;2022-12-29T00:18:09;12.90;;;7.60;;
65871;SDS011;52653;50.080;21.992;2022-12-29T00:20:42;12.50;;;7.30;;
65871;SDS011;52653;50.080;21.992;2022-12-29T00:23:32;11.10;;;7.00;;
65871;SDS011;52653;50.080;21.992;2022-12-29T00:26:29;11.80;;;6.90;;
65871;SDS011;52653;50.080;21.992;2022-12-29T00:29:19;11.30;;;7.00;;
65871;SDS011;52653;50.080;21.992;2022-12-29T00:32:09;12.90;;;7.50;;
65871;SDS011;52653;50.080;21.992;2022-12-29T00:34:59;10.40;;;6.50;;
65871;SDS011;52653;50.080;21.992;2022-12-29T00:37:41;11.20;;;7.10;;
65871;SDS011;52653;50.080;21.992;2022-12-29T00:40:35;12.50;;;7.10;;
65871;SDS011;52653;50.080;21.992;2022-12-29T00:43:25;11.20;;;6.90;;
65871;SDS011;52653;50.080;21.992;2022-12-29T00:46:18;10.40;;;6.50;;
65871;SDS011;52653;50.080;21.992;2022-12-29T00:48:51;9.90;;;6.30;;
65871;SDS011;52653;50.080;21.992;2022-12-29T00:51:42;10.40;;;6.20;;
65871;SDS011;52653;50.080;21.992;2022-12-29T00:54:15;10.50;;;6.50;;
65871;SDS011;52653;50.080;21.992;2022-12-29T00:56:49;10.30;;;6.40;;
65871;SDS011;52653;50.080;21.992;2022-12-29T00:59:22;10.50;;;5.80;;
65871;SDS011;52653;50.080;21.992;2022-12-29T01:01:55;9.10;;;5.50;;
65871;SDS011;52653;50.080;21.992;2022-12-29T01:04:30;11.40;;;6.30;;
65871;SDS011;52653;50.080;21.992;2022-12-29T01:07:03;10.50;;;6.40;;
65871;SDS011;52653;50.080;21.992;2022-12-29T01:09:39;10.10;;;6.20;;
65871;SDS011;52653;50.080;21.992;2022-12-29T01:12:40;9.80;;;5.90;;
65871;SDS011;52653;50.080;21.992;2022-12-29T01:15:14;9.30;;;5.70;;
65871;SDS011;52653;50.080;21.992;2022-12-29T01:17:47;11.90;;;8.40;;
65871;SDS011;52653;50.080;21.992;2022-12-29T01:20:20;14.30;;;7.80;;
65871;SDS011;52653;50.080;21.992;2022-12-29T01:22:53;13.00;;;7.10;;
65871;SDS011;52653;50.080;21.992;2022-12-29T01:25:26;11.50;;;5.70;;
65871;SDS011;52653;50.080;21.992;2022-12-29T01:28:00;10.20;;;5.30;;
65871;SDS011;52653;50.080;21.992;2022-12-29T01:30:34;8.50;;;5.60;;
65871;SDS011;52653;50.080;21.992;2022-12-29T01:33:07;8.60;;;5.50;;
65871;SDS011;52653;50.080;21.992;2022-12-29T01:35:42;8.70;;;4.80;;
65871;SDS011;52653;50.080;21.992;2022-12-29T01:38:15;9.50;;;5.10;;
65871;SDS011;52653;50.080;21.992;2022-12-29T01:40:47;8.80;;;5.80;;
65871;SDS011;52653;50.080;21.992;2022-12-29T01:43:20;9.40;;;5.40;;
65871;SDS011;52653;50.080;21.992;2022-12-29T01:46:09;10.90;;;5.70;;
65871;SDS011;52653;50.080;21.992;2022-12-29T01:48:55;8.80;;;5.20;;
65871;SDS011;52653;50.080;21.992;2022-12-29T01:51:30;8.00;;;5.20;;
65871;SDS011;52653;50.080;21.992;2022-12-29T01:54:07;9.60;;;5.40;;
65871;SDS011;52653;50.080;21.992;2022-12-29T01:56:43;10.00;;;6.00;;
65871;SDS011;52653;50.080;21.992;2022-12-29T01:59:18;9.80;;;5.60;;
65871;SDS011;52653;50.080;21.992;2022-12-29T02:01:55;8.90;;;4.60;;
65871;SDS011;52653;50.080;21.992;2022-12-29T02:04:29;8.40;;;5.20;;
65871;SDS011;52653;50.080;21.992;2022-12-29T02:07:05;9.30;;;5.10;;
65871;SDS011;52653;50.080;21.992;2022-12-29T02:09:42;8.50;;;5.00;;
65871;SDS011;52653;50.080;21.992;2022-12-29T02:12:17;8.10;;;4.90;;
65871;SDS011;52653;50.080;21.992;2022-12-29T02:14:54;8.40;;;5.10;;
65871;SDS011;52653;50.080;21.992;2022-12-29T02:17:34;9.10;;;4.90;;
65871;SDS011;52653;50.080;21.992;2022-12-29T02:23:38;9.70;;;5.30;;
65871;SDS011;52653;50.080;21.992;2022-12-29T02:29:40;8.80;;;5.20;;
65871;SDS011;52653;50.080;21.992;2022-12-29T02:32:36;7.30;;;5.30;;
65871;SDS011;52653;50.080;21.992;2022-12-29T02:35:16;12.20;;;8.20;;
65871;SDS011;52653;50.080;21.992;2022-12-29T02:38:03;8.60;;;5.20;;
65871;SDS011;52653;50.080;21.992;2022-12-29T02:40:45;7.60;;;4.70;;
65871;SDS011;52653;50.080;21.992;2022-12-29T02:43:24;8.60;;;4.90;;
65871;SDS011;52653;50.080;21.992;2022-12-29T02:46:04;8.00;;;4.80;;
65871;SDS011;52653;50.080;21.992;2022-12-29T02:48:48;8.90;;;5.10;;
65871;SDS011;52653;50.080;21.992;2022-12-29T02:51:25;9.30;;;5.10;;
65871;SDS011;52653;50.080;21.992;2022-12-29T02:54:03;8.80;;;4.90;;
65871;SDS011;52653;50.080;21.992;2022-12-29T02:56:53;8.80;;;5.00;;
65871;SDS011;52653;50.080;21.992;2022-12-29T02:59:26;9.20;;;4.60;;
65871;SDS011;52653;50.080;21.992;2022-12-29T03:05:10;8.60;;;4.20;;
65871;SDS011;52653;50.080;21.992;2022-12-29T03:07:54;7.60;;;4.50;;
65871;SDS011;52653;50.080;21.992;2022-12-29T03:10:41;7.80;;;4.20;;
65871;SDS011;52653;50.080;21.992;2022-12-29T03:13:21;8.00;;;4.20;;
65871;SDS011;52653;50.080;21.992;2022-12-29T03:16:18;8.20;;;4.30;;
65871;SDS011;52653;50.080;21.992;2022-12-29T03:19:00;8.00;;;4.50;;
65871;SDS011;52653;50.080;21.992;2022-12-29T03:21:39;7.30;;;4.30;;
65871;SDS011;52653;50.080;21.992;2022-12-29T03:24:41;8.10;;;4.30;;
65871;SDS011;52653;50.080;21.992;2022-12-29T03:27:21;7.80;;;4.40;;
65871;SDS011;52653;50.080;21.992;2022-12-29T03:29:57;9.30;;;4.40;;
65871;SDS011;52653;50.080;21.992;2022-12-29T03:32:33;8.00;;;4.30;;
65871;SDS011;52653;50.080;21.992;2022-12-29T03:35:13;7.90;;;4.70;;
65871;SDS011;52653;50.080;21.992;2022-12-29T03:37:49;9.70;;;5.70;;
65871;SDS011;52653;50.080;21.992;2022-12-29T03:40:27;9.30;;;5.00;;
65871;SDS011;52653;50.080;21.992;2022-12-29T03:43:02;7.20;;;4.20;;
65871;SDS011;52653;50.080;21.992;2022-12-29T03:45:37;9.00;;;4.50;;
65871;SDS011;52653;50.080;21.992;2022-12-29T03:48:10;7.80;;;4.90;;
65871;SDS011;52653;50.080;21.992;2022-12-29T03:50:43;7.10;;;4.10;;
65871;SDS011;52653;50.080;21.992;2022-12-29T03:53:17;8.40;;;4.40;;
65871;SDS011;52653;50.080;21.992;2022-12-29T03:55:50;7.60;;;4.20;;
65871;SDS011;52653;50.080;21.992;2022-12-29T03:58:23;8.00;;;3.70;;
65871;SDS011;52653;50.080;21.992;2022-12-29T04:01:07;7.60;;;3.90;;
65871;SDS011;52653;50.080;21.992;2022-12-29T04:03:42;7.60;;;3.90;;
65871;SDS011;52653;50.080;21.992;2022-12-29T04:06:15;7.60;;;3.40;;
65871;SDS011;52653;50.080;21.992;2022-12-29T04:08:52;9.30;;;4.10;;
65871;SDS011;52653;50.080;21.992;2022-12-29T04:11:24;6.90;;;4.30;;
65871;SDS011;52653;50.080;21.992;2022-12-29T04:14:02;8.20;;;3.90;;
65871;SDS011;52653;50.080;21.992;2022-12-29T04:16:37;7.10;;;3.60;;
65871;SDS011;52653;50.080;21.992;2022-12-29T04:19:10;6.60;;;3.70;;
65871;SDS011;52653;50.080;21.992;2022-12-29T04:21:43;6.60;;;3.60;;
65871;SDS011;52653;50.080;21.992;2022-12-29T04:24:16;6.50;;;3.50;;
65871;SDS011;52653;50.080;21.992;2022-12-29T04:26:51;6.60;;;3.60;;
65871;SDS011;52653;50.080;21.992;2022-12-29T04:29:34;7.50;;;3.30;;
65871;SDS011;52653;50.080;21.992;2022-12-29T04:32:10;7.40;;;3.40;;
65871;SDS011;52653;50.080;21.992;2022-12-29T04:34:47;10.00;;;3.80;;
65871;SDS011;52653;50.080;21.992;2022-12-29T04:37:20;8.00;;;4.00;;
65871;SDS011;52653;50.080;21.992;2022-12-29T04:39:56;7.20;;;4.00;;
65871;SDS011;52653;50.080;21.992;2022-12-29T04:42:29;6.20;;;3.10;;
65871;SDS011;52653;50.080;21.992;2022-12-29T04:45:02;8.20;;;3.50;;
65871;SDS011;52653;50.080;21.992;2022-12-29T04:47:44;5.90;;;3.40;;
65871;SDS011;52653;50.080;21.992;2022-12-29T04:50:41;6.70;;;3.50;;
65871;SDS011;52653;50.080;21.992;2022-12-29T04:53:23;6.80;;;3.80;;
65871;SDS011;52653;50.080;21.992;2022-12-29T04:55:57;6.10;;;3.30;;
65871;SDS011;52653;50.080;21.992;2022-12-29T04:58:30;7.50;;;3.80;;
65871;SDS011;52653;50.080;21.992;2022-12-29T05:01:03;6.50;;;3.20;;
65871;SDS011;52653;50.080;21.992;2022-12-29T05:03:36;7.60;;;3.90;;
65871;SDS011;52653;50.080;21.992;2022-12-29T05:06:09;7.20;;;3.50;;
65871;SDS011;52653;50.080;21.992;2022-12-29T05:08:44;7.50;;;3.60;;
65871;SDS011;52653;50.080;21.992;2022-12-29T05:11:17;6.40;;;3.40;;
65871;SDS011;52653;50.080;21.992;2022-12-29T05:13:51;7.50;;;3.80;;
65871;SDS011;52653;50.080;21.992;2022-12-29T05:16:24;8.10;;;4.10;;
65871;SDS011;52653;50.080;21.992;2022-12-29T05:18:57;8.70;;;4.40;;
65871;SDS011;52653;50.080;21.992;2022-12-29T05:21:30;8.10;;;3.80;;
65871;SDS011;52653;50.080;21.992;2022-12-29T05:24:04;8.50;;;4.80;;
65871;SDS011;52653;50.080;21.992;2022-12-29T05:26:37;10.10;;;6.00;;
65871;SDS011;52653;50.080;21.992;2022-12-29T05:29:30;12.50;;;6.40;;
65871;SDS011;52653;50.080;21.992;2022-12-29T05:32:05;9.70;;;5.00;;
65871;SDS011;52653;50.080;21.992;2022-12-29T05:34:38;9.00;;;4.40;;
65871;SDS011;52653;50.080;21.992;2022-12-29T05:37:11;7.30;;;3.90;;
65871;SDS011;52653;50.080;21.992;2022-12-29T05:39:44;7.00;;;3.80;;
65871;SDS011;52653;50.080;21.992;2022-12-29T05:42:17;6.40;;;3.80;;
65871;SDS011;52653;50.080;21.992;2022-12-29T05:44:58;8.60;;;3.80;;
65871;SDS011;52653;50.080;21.992;2022-12-29T05:48:03;6.50;;;3.70;;
65871;SDS011;52653;50.080;21.992;2022-12-29T05:50:50;8.10;;;3.80;;
65871;SDS011;52653;50.080;21.992;2022-12-29T05:53:31;8.20;;;3.80;;
65871;SDS011;52653;50.080;21.992;2022-12-29T05:56:05;7.10;;;3.90;;
65871;SDS011;52653;50.080;21.992;2022-12-29T05:58:39;7.70;;;4.00;;
65871;SDS011;52653;50.080;21.992;2022-12-29T06:01:12;9.40;;;4.40;;
65871;SDS011;52653;50.080;21.992;2022-12-29T06:03:46;6.70;;;3.60;;
65871;SDS011;52653;50.080;21.992;2022-12-29T06:06:21;9.30;;;3.90;;
65871;SDS011;52653;50.080;21.992;2022-12-29T06:08:54;7.50;;;4.00;;
65871;SDS011;52653;50.080;21.992;2022-12-29T06:11:31;7.20;;;4.10;;
65871;SDS011;52653;50.080;21.992;2022-12-29T06:14:04;8.40;;;3.70;;
65871;SDS011;52653;50.080;21.992;2022-12-29T06:16:38;10.40;;;4.50;;
65871;SDS011;52653;50.080;21.992;2022-12-29T06:19:13;7.20;;;4.20;;
65871;SDS011;52653;50.080;21.992;2022-12-29T06:21:46;7.90;;;4.20;;
65871;SDS011;52653;50.080;21.992;2022-12-29T06:24:21;7.90;;;4.00;;
65871;SDS011;52653;50.080;21.992;2022-12-29T06:26:54;7.40;;;4.10;;
65871;SDS011;52653;50.080;21.992;2022-12-29T06:29:26;7.40;;;4.00;;
65871;SDS011;52653;50.080;21.992;2022-12-29T06:31:59;8.00;;;4.30;;
65871;SDS011;52653;50.080;21.992;2022-12-29T06:34:35;8.90;;;4.60;;
65871;SDS011;52653;50.080;21.992;2022-12-29T06:37:07;8.10;;;4.20;;
65871;SDS011;52653;50.080;21.992;2022-12-29T06:39:40;10.70;;;4.50;;
65871;SDS011;52653;50.080;21.992;2022-12-29T06:42:15;9.00;;;4.10;;
65871;SDS011;52653;50.080;21.992;2022-12-29T06:44:58;8.30;;;4.20;;
65871;SDS011;52653;50.080;21.992;2022-12-29T06:47:31;6.90;;;4.10;;
65871;SDS011;52653;50.080;21.992;2022-12-29T06:50:05;7.40;;;4.60;;
65871;SDS011;52653;50.080;21.992;2022-12-29T06:52:38;9.20;;;4.40;;
65871;SDS011;52653;50.080;21.992;2022-12-29T06:55:11;7.00;;;4.20;;
65871;SDS011;52653;50.080;21.992;2022-12-29T06:57:46;9.10;;;4.50;;
65871;SDS011;52653;50.080;21.992;2022-12-29T07:00:19;8.60;;;4.40;;
65871;SDS011;52653;50.080;21.992;2022-12-29T07:02:52;7.30;;;4.20;;
65871;SDS011;52653;50.080;21.992;2022-12-29T07:05:27;9.00;;;4.70;;
65871;SDS011;52653;50.080;21.992;2022-12-29T07:08:02;8.60;;;4.20;;
65871;SDS011;52653;50.080;21.992;2022-12-29T07:10:37;8.70;;;4.60;;
65871;SDS011;52653;50.080;21.992;2022-12-29T07:13:10;9.30;;;5.00;;
65871;SDS011;52653;50.080;21.992;2022-12-29T07:15:43;9.60;;;4.90;;
65871;SDS011;52653;50.080;21.992;2022-12-29T07:18:15;9.80;;;4.90;;
65871;SDS011;52653;50.080;21.992;2022-12-29T07:20:48;6.90;;;4.10;;
65871;SDS011;52653;50.080;21.992;2022-12-29T07:23:23;8.00;;;5.00;;
65871;SDS011;52653;50.080;21.992;2022-12-29T07:26:00;8.20;;;5.00;;
65871;SDS011;52653;50.080;21.992;2022-12-29T07:28:33;9.30;;;4.80;;
65871;SDS011;52653;50.080;21.992;2022-12-29T07:31:08;11.20;;;4.90;;
65871;SDS011;52653;50.080;21.992;2022-12-29T07:33:47;15.80;;;6.70;;
65871;SDS011;52653;50.080;21.992;2022-12-29T07:36:20;10.10;;;5.10;;
65871;SDS011;52653;50.080;21.992;2022-12-29T07:39:00;9.10;;;4.90;;
65871;SDS011;52653;50.080;21.992;2022-12-29T07:41:33;9.20;;;4.60;;
65871;SDS011;52653;50.080;21.992;2022-12-29T07:44:08;10.30;;;5.90;;
65871;SDS011;52653;50.080;21.992;2022-12-29T07:46:58;8.70;;;4.90;;
65871;SDS011;52653;50.080;21.992;2022-12-29T07:49:31;9.00;;;4.90;;
65871;SDS011;52653;50.080;21.992;2022-12-29T07:52:04;11.50;;;5.60;;
65871;SDS011;52653;50.080;21.992;2022-12-29T07:54:37;10.70;;;5.70;;
65871;SDS011;52653;50.080;21.992;2022-12-29T07:57:10;13.10;;;7.30;;
65871;SDS011;52653;50.080;21.992;2022-12-29T07:59:42;14.00;;;7.70;;
65871;SDS011;52653;50.080;21.992;2022-12-29T08:02:15;11.40;;;6.60;;
65871;SDS011;52653;50.080;21.992;2022-12-29T08:04:48;12.60;;;7.30;;
65871;SDS011;52653;50.080;21.992;2022-12-29T08:07:20;10.00;;;6.20;;
65871;SDS011;52653;50.080;21.992;2022-12-29T08:09:53;21.70;;;7.60;;
65871;SDS011;52653;50.080;21.992;2022-12-29T08:12:27;10.70;;;6.60;;
65871;SDS011;52653;50.080;21.992;2022-12-29T08:15:00;10.80;;;7.00;;
65871;SDS011;52653;50.080;21.992;2022-12-29T08:17:33;9.90;;;6.50;;
65871;SDS011;52653;50.080;21.992;2022-12-29T08:20:07;11.30;;;6.00;;
65871;SDS011;52653;50.080;21.992;2022-12-29T08:22:41;10.30;;;6.40;;
65871;SDS011;52653;50.080;21.992;2022-12-29T08:25:13;9.90;;;5.90;;
65871;SDS011;52653;50.080;21.992;2022-12-29T08:27:46;10.80;;;6.40;;
65871;SDS011;52653;50.080;21.992;2022-12-29T08:30:19;9.40;;;5.90;;
65871;SDS011;52653;50.080;21.992;2022-12-29T08:32:53;11.00;;;6.10;;
65871;SDS011;52653;50.080;21.992;2022-12-29T08:35:26;12.40;;;6.50;;
65871;SDS011;52653;50.080;21.992;2022-12-29T08:37:58;11.70;;;6.60;;
65871;SDS011;52653;50.080;21.992;2022-12-29T08:40:31;10.90;;;5.90;;
65871;SDS011;52653;50.080;21.992;2022-12-29T08:43:04;10.60;;;6.30;;
65871;SDS011;52653;50.080;21.992;2022-12-29T08:45:37;11.40;;;7.20;;
65871;SDS011;52653;50.080;21.992;2022-12-29T08:48:10;13.30;;;7.90;;
65871;SDS011;52653;50.080;21.992;2022-12-29T08:50:47;12.80;;;7.10;;
65871;SDS011;52653;50.080;21.992;2022-12-29T08:53:20;10.20;;;6.80;;
65871;SDS011;52653;50.080;21.992;2022-12-29T08:55:56;14.30;;;7.00;;
65871;SDS011;52653;50.080;21.992;2022-12-29T08:58:40;14.00;;;6.70;;
65871;SDS011;52653;50.080;21.992;2022-12-29T09:01:13;11.30;;;6.00;;
65871;SDS011;52653;50.080;21.992;2022-12-29T09:03:46;14.50;;;6.60;;
65871;SDS011;52653;50.080;21.992;2022-12-29T09:06:39;11.50;;;6.50;;
65871;SDS011;52653;50.080;21.992;2022-12-29T09:09:12;18.50;;;9.80;;
65871;SDS011;52653;50.080;21.992;2022-12-29T09:11:45;13.90;;;8.80;;
65871;SDS011;52653;50.080;21.992;2022-12-29T09:14:17;18.60;;;8.50;;
65871;SDS011;52653;50.080;21.992;2022-12-29T09:16:51;16.60;;;7.20;;
65871;SDS011;52653;50.080;21.992;2022-12-29T09:19:42;12.90;;;6.50;;
65871;SDS011;52653;50.080;21.992;2022-12-29T09:22:15;15.80;;;6.90;;
65871;SDS011;52653;50.080;21.992;2022-12-29T09:24:48;11.60;;;5.80;;
65871;SDS011;52653;50.080;21.992;2022-12-29T09:27:20;11.00;;;6.30;;
65871;SDS011;52653;50.080;21.992;2022-12-29T09:29:53;10.90;;;6.00;;
65871;SDS011;52653;50.080;21.992;2022-12-29T09:32:27;9.70;;;6.10;;
65871;SDS011;52653;50.080;21.992;2022-12-29T09:35:03;9.80;;;6.00;;
65871;SDS011;52653;50.080;21.992;2022-12-29T09:37:36;11.70;;;6.10;;
65871;SDS011;52653;50.080;21.992;2022-12-29T09:40:16;9.90;;;6.50;;
65871;SDS011;52653;50.080;21.992;2022-12-29T09:45:37;9.70;;;6.10;;
65871;SDS011;52653;50.080;21.992;2022-12-29T09:48:17;11.10;;;6.40;;
65871;SDS011;52653;50.080;21.992;2022-12-29T09:50:55;9.10;;;5.50;;
65871;SDS011;52653;50.080;21.992;2022-12-29T09:53:30;11.70;;;6.10;;
65871;SDS011;52653;50.080;21.992;2022-12-29T09:56:10;11.20;;;6.20;;
65871;SDS011;52653;50.080;21.992;2022-12-29T09:58:52;10.70;;;6.40;;
65871;SDS011;52653;50.080;21.992;2022-12-29T10:01:30;11.10;;;6.10;;
65871;SDS011;52653;50.080;21.992;2022-12-29T10:04:06;9.20;;;6.10;;
65871;SDS011;52653;50.080;21.992;2022-12-29T10:06:42;10.50;;;5.80;;
65871;SDS011;52653;50.080;21.992;2022-12-29T10:09:45;11.50;;;6.00;;
65871;SDS011;52653;50.080;21.992;2022-12-29T10:12:31;10.10;;;6.30;;
65871;SDS011;52653;50.080;21.992;2022-12-29T10:15:23;12.20;;;6.10;;
65871;SDS011;52653;50.080;21.992;2022-12-29T10:18:14;10.00;;;5.90;;
65871;SDS011;52653;50.080;21.992;2022-12-29T10:21:03;10.70;;;6.50;;
65871;SDS011;52653;50.080;21.992;2022-12-29T10:23:40;11.80;;;6.10;;
65871;SDS011;52653;50.080;21.992;2022-12-29T10:26:16;11.00;;;6.50;;
65871;SDS011;52653;50.080;21.992;2022-12-29T10:28:54;13.90;;;6.50;;
65871;SDS011;52653;50.080;21.992;2022-12-29T10:31:34;10.90;;;6.20;;
65871;SDS011;52653;50.080;21.992;2022-12-29T10:34:14;10.20;;;6.40;;
65871;SDS011;52653;50.080;21.992;2022-12-29T10:36:50;10.20;;;6.00;;
65871;SDS011;52653;50.080;21.992;2022-12-29T10:39:30;10.70;;;6.00;;
65871;SDS011;52653;50.080;21.992;2022-12-29T10:42:11;9.60;;;6.00;;
65871;SDS011;52653;50.080;21.992;2022-12-29T10:44:50;9.50;;;5.90;;
65871;SDS011;52653;50.080;21.992;2022-12-29T10:47:26;11.30;;;6.30;;
65871;SDS011;52653;50.080;21.992;2022-12-29T10:50:05;11.80;;;5.50;;
65871;SDS011;52653;50.080;21.992;2022-12-29T10:52:38;10.00;;;6.00;;
65871;SDS011;52653;50.080;21.992;2022-12-29T10:55:12;11.60;;;6.40;;
65871;SDS011;52653;50.080;21.992;2022-12-29T10:57:48;9.80;;;5.80;;
65871;SDS011;52653;50.080;21.992;2022-12-29T11:00:22;9.70;;;5.40;;
65871;SDS011;52653;50.080;21.992;2022-12-29T11:03:00;9.60;;;5.80;;
65871;SDS011;52653;50.080;21.992;2022-12-29T11:05:54;9.80;;;6.20;;
65871;SDS011;52653;50.080;21.992;2022-12-29T11:08:33;12.40;;;6.00;;
65871;SDS011;52653;50.080;21.992;2022-12-29T11:11:08;12.90;;;6.30;;
65871;SDS011;52653;50.080;21.992;2022-12-29T11:13:48;12.60;;;6.20;;
65871;SDS011;52653;50.080;21.992;2022-12-29T11:16:28;10.40;;;5.80;;
65871;SDS011;52653;50.080;21.992;2022-12-29T11:19:03;11.20;;;5.80;;
65871;SDS011;52653;50.080;21.992;2022-12-29T11:21:37;10.70;;;6.10;;
65871;SDS011;52653;50.080;21.992;2022-12-29T11:24:20;10.70;;;6.40;;
65871;SDS011;52653;50.080;21.992;2022-12-29T11:27:08;10.80;;;6.00;;
65871;SDS011;52653;50.080;21.992;2022-12-29T11:29:45;11.60;;;6.60;;
65871;SDS011;52653;50.080;21.992;2022-12-29T11:32:19;11.10;;;6.70;;
65871;SDS011;52653;50.080;21.992;2022-12-29T11:34:58;11.10;;;6.70;;
65871;SDS011;52653;50.080;21.992;2022-12-29T11:37:32;10.90;;;6.60;;
65871;SDS011;52653;50.080;21.992;2022-12-29T11:40:15;11.40;;;6.50;;
65871;SDS011;52653;50.080;21.992;2022-12-29T11:42:50;10.90;;;6.30;;
65871;SDS011;52653;50.080;21.992;2022-12-29T11:45:27;11.40;;;6.70;;
65871;SDS011;52653;50.080;21.992;2022-12-29T11:48:07;10.60;;;6.40;;
65871;SDS011;52653;50.080;21.992;2022-12-29T11:50:50;10.30;;;6.50;;
65871;SDS011;52653;50.080;21.992;2022-12-29T11:53:25;11.10;;;6.20;;
65871;SDS011;52653;50.080;21.992;2022-12-29T11:56:04;12.10;;;6.60;;
65871;SDS011;52653;50.080;21.992;2022-12-29T11:58:41;10.50;;;6.60;;
65871;SDS011;52653;50.080;21.992;2022-12-29T12:01:15;11.00;;;6.00;;
65871;SDS011;52653;50.080;21.992;2022-12-29T12:03:55;9.80;;;6.80;;
65871;SDS011;52653;50.080;21.992;2022-12-29T12:06:34;10.90;;;6.60;;
65871;SDS011;52653;50.080;21.992;2022-12-29T12:09:16;12.90;;;6.90;;
65871;SDS011;52653;50.080;21.992;2022-12-29T12:11:54;12.00;;;6.40;;
65871;SDS011;52653;50.080;21.992;2022-12-29T12:14:30;10.90;;;6.60;;
65871;SDS011;52653;50.080;21.992;2022-12-29T12:17:23;9.80;;;6.50;;
65871;SDS011;52653;50.080;21.992;2022-12-29T12:20:14;14.20;;;7.00;;
65871;SDS011;52653;50.080;21.992;2022-12-29T12:22:53;12.10;;;6.40;;
65871;SDS011;52653;50.080;21.992;2022-12-29T12:25:38;10.50;;;6.30;;
65871;SDS011;52653;50.080;21.992;2022-12-29T12:28:15;13.10;;;7.10;;
65871;SDS011;52653;50.080;21.992;2022-12-29T12:31:04;11.50;;;7.20;;
65871;SDS011;52653;50.080;21.992;2022-12-29T12:33:47;11.90;;;6.70;;
65871;SDS011;52653;50.080;21.992;2022-12-29T12:36:32;12.00;;;6.70;;
65871;SDS011;52653;50.080;21.992;2022-12-29T12:39:24;11.30;;;6.40;;
65871;SDS011;52653;50.080;21.992;2022-12-29T12:42:06;11.30;;;6.50;;
65871;SDS011;52653;50.080;21.992;2022-12-29T12:44:53;11.00;;;7.00;;
65871;SDS011;52653;50.080;21.992;2022-12-29T12:47:52;13.20;;;7.30;;
65871;SDS011;52653;50.080;21.992;2022-12-29T12:50:35;11.00;;;6.70;;
65871;SDS011;52653;50.080;21.992;2022-12-29T12:53:26;12.20;;;6.30;;
65871;SDS011;52653;50.080;21.992;2022-12-29T12:59:11;11.90;;;6.80;;
65871;SDS011;52653;50.080;21.992;2022-12-29T13:02:09;10.90;;;6.50;;
65871;SDS011;52653;50.080;21.992;2022-12-29T13:05:05;10.70;;;6.70;;
65871;SDS011;52653;50.080;21.992;2022-12-29T13:08:04;11.70;;;6.80;;
65871;SDS011;52653;50.080;21.992;2022-12-29T13:10:55;11.90;;;7.40;;
65871;SDS011;52653;50.080;21.992;2022-12-29T13:13:39;12.80;;;7.00;;
65871;SDS011;52653;50.080;21.992;2022-12-29T13:16:25;11.10;;;7.00;;
65871;SDS011;52653;50.080;21.992;2022-12-29T13:19:06;14.50;;;7.70;;
65871;SDS011;52653;50.080;21.992;2022-12-29T13:21:50;10.60;;;6.60;;
65871;SDS011;52653;50.080;21.992;2022-12-29T13:24:39;12.00;;;7.20;;
65871;SDS011;52653;50.080;21.992;2022-12-29T13:27:20;10.50;;;6.70;;
65871;SDS011;52653;50.080;21.992;2022-12-29T13:30:08;13.00;;;7.50;;
65871;SDS011;52653;50.080;21.992;2022-12-29T13:32:49;15.20;;;8.40;;
65871;SDS011;52653;50.080;21.992;2022-12-29T13:35:35;15.20;;;8.90;;
65871;SDS011;52653;50.080;21.992;2022-12-29T13:38:18;12.40;;;7.40;;
65871;SDS011;52653;50.080;21.992;2022-12-29T13:40:55;16.00;;;8.40;;
65871;SDS011;52653;50.080;21.992;2022-12-29T13:43:31;14.10;;;8.30;;
65871;SDS011;52653;50.080;21.992;2022-12-29T13:48:43;13.70;;;8.00;;
65871;SDS011;52653;50.080;21.992;2022-12-29T13:51:23;14.10;;;8.70;;
65871;SDS011;52653;50.080;21.992;2022-12-29T13:54:00;13.50;;;8.40;;
65871;SDS011;52653;50.080;21.992;2022-12-29T13:56:45;15.70;;;8.40;;
65871;SDS011;52653;50.080;21.992;2022-12-29T13:59:24;12.50;;;8.10;;
65871;SDS011;52653;50.080;21.992;2022-12-29T14:02:13;14.10;;;8.10;;
65871;SDS011;52653;50.080;21.992;2022-12-29T14:05:00;13.40;;;7.80;;
65871;SDS011;52653;50.080;21.992;2022-12-29T14:07:37;13.60;;;8.20;;
65871;SDS011;52653;50.080;21.992;2022-12-29T14:10:18;12.10;;;7.30;;
65871;SDS011;52653;50.080;21.992;2022-12-29T14:13:01;14.60;;;8.70;;
65871;SDS011;52653;50.080;21.992;2022-12-29T14:15:38;13.40;;;8.10;;
65871;SDS011;52653;50.080;21.992;2022-12-29T14:18:14;13.20;;;8.20;;
65871;SDS011;52653;50.080;21.992;2022-12-29T14:20:51;13.80;;;7.90;;
65871;SDS011;52653;50.080;21.992;2022-12-29T14:23:27;14.30;;;8.30;;
65871;SDS011;52653;50.080;21.992;2022-12-29T14:26:14;15.50;;;8.50;;
65871;SDS011;52653;50.080;21.992;2022-12-29T14:28:49;15.20;;;8.40;;
65871;SDS011;52653;50.080;21.992;2022-12-29T14:31:35;12.00;;;7.60;;
65871;SDS011;52653;50.080;21.992;2022-12-29T14:34:33;15.20;;;8.10;;
65871;SDS011;52653;50.080;21.992;2022-12-29T14:37:25;13.60;;;7.90;;
65871;SDS011;52653;50.080;21.992;2022-12-29T14:40:06;13.60;;;8.50;;
65871;SDS011;52653;50.080;21.992;2022-12-29T14:42:54;13.50;;;8.90;;
65871;SDS011;52653;50.080;21.992;2022-12-29T14:45:29;16.60;;;10.60;;
65871;SDS011;52653;50.080;21.992;2022-12-29T14:48:15;17.00;;;10.30;;
65871;SDS011;52653;50.080;21.992;2022-12-29T14:51:02;15.70;;;10.50;;
65871;SDS011;52653;50.080;21.992;2022-12-29T14:53:50;16.50;;;10.70;;
65871;SDS011;52653;50.080;21.992;2022-12-29T14:56:25;19.10;;;12.30;;
65871;SDS011;52653;50.080;21.992;2022-12-29T14:59:01;17.20;;;12.00;;
65871;SDS011;52653;50.080;21.992;2022-12-29T15:01:42;20.20;;;12.20;;
65871;SDS011;52653;50.080;21.992;2022-12-29T15:04:20;18.30;;;10.90;;
65871;SDS011;52653;50.080;21.992;2022-12-29T15:06:58;17.80;;;11.00;;
65871;SDS011;52653;50.080;21.992;2022-12-29T15:09:34;18.90;;;11.50;;
65871;SDS011;52653;50.080;21.992;2022-12-29T15:12:17;19.20;;;12.00;;
65871;SDS011;52653;50.080;21.992;2022-12-29T15:14:54;18.10;;;12.10;;
65871;SDS011;52653;50.080;21.992;2022-12-29T15:17:30;19.40;;;11.50;;
65871;SDS011;52653;50.080;21.992;2022-12-29T15:20:17;15.60;;;10.70;;
65871;SDS011;52653;50.080;21.992;2022-12-29T15:22:57;15.30;;;10.60;;
65871;SDS011;52653;50.080;21.992;2022-12-29T15:25:32;16.50;;;11.80;;
65871;SDS011;52653;50.080;21.992;2022-12-29T15:28:06;19.70;;;12.40;;
65871;SDS011;52653;50.080;21.992;2022-12-29T15:30:51;17.80;;;11.90;;
65871;SDS011;52653;50.080;21.992;2022-12-29T15:33:26;18.30;;;11.80;;
65871;SDS011;52653;50.080;21.992;2022-12-29T15:36:02;22.30;;;12.80;;
65871;SDS011;52653;50.080;21.992;2022-12-29T15:38:42;20.60;;;12.90;;
65871;SDS011;52653;50.080;21.992;2022-12-29T15:41:24;19.50;;;11.70;;
65871;SDS011;52653;50.080;21.992;2022-12-29T15:44:24;16.60;;;11.00;;
65871;SDS011;52653;50.080;21.992;2022-12-29T15:47:02;16.20;;;11.40;;
65871;SDS011;52653;50.080;21.992;2022-12-29T15:49:36;17.20;;;11.60;;
65871;SDS011;52653;50.080;21.992;2022-12-29T15:52:09;19.80;;;12.80;;